Terminal Aerodrome Forecast
Issued by NWS Key West, FL

Home | Current Version | Previous Version | Text Only | Print | Product List | Glossary On
Versions: 1 2 3 4 5 6 7 8 9 10 11 12 13 14 15 16 17 18 19 20 21 22 23
000
FTUS42 KKEY 181400 AAA
TAFEYW
TAF AMD
KEYW 181458Z 1815/1912 15012G17KT P6SM FEW025
     FM190300 18006KT P6SM FEW023
     FM190700 27010KT P6SM FEW020 SCT050 OVC100 PROB30 1907/1912
      VRB15G25KT 2SM TSRA BKN015CB OVC045=

USA.gov is the U.S. government's official web portal to all federal, state and local government web resources and services.